Contacto @
curve curve curve curve

METEOROLOGÍA AERONÁUTICA

INFORMACIÓN METEOROLÓGICA

En este apartado aparece la información meteorológica aeronáutica que es utilizada en las prácticas de los alumnos de la Escuela de Pilotos de nuestro centro durante su formación, por lo que puede no ser actual y debe ser usada por su propia cuenta y riesgo. AERBRAVA no se hace responsable de su uso.

TIEMPO ACTUAL

Satélite meteorológico sat24.com

Servei Meteorològic de Catalunya
LEGE 200900Z VRB01KT 9999 FEW040 17/08 Q1021
LEGE 200830Z VRB02KT 9999 FEW040 16/08 Q1021
LEGE 200800Z 00000KT 9999 FEW040 15/10 Q1021
LEGE 200730Z 00000KT CAVOK 15/09 Q1021
TAF LEGE 200500Z 2006/2106 VRB04KT 9999 FEW020 TX24/2013Z TN11/2006Z
BECMG 2012/2014 18010KT
BECMG 2018/2021 VRB03KT
National Weather service
Matrícula abierta Piloto RPAs - Drones - UAVs.
Miércoles
20 Septiembre de 2017
Página cargada a las 09:18 UTC
Orto: 05:38 UTC
Ocaso: 17:46 UTC

2017/09/20 09:00 LEGE 200900Z VRB01KT 9999 FEW040 17/08 Q1021


2017/09/20 06:27 TAF LEGE 200500Z 2006/2106 VRB04KT 9999 FEW020 TX24/2013Z TN11/2006Z BECMG 2012/2014 18010KT BECMG 2018/2021 VRB03KT
Sólo se muestran los aviones equipados con el sistema ADS-B en directo desde FlightRadar24
Aerbrava en el facebook Aerbrava en el youtube Aerbrava en el twitter Google+
Instagram tumblr flikr
logo inicio Nosotros | Mapa del sitio | Oportunidades profesionales | Privacidad | Contacte con nosotros | © 2017 AERBRAVA, SCP